createdAt,value
2023-03-03T00:00:25.869Z,30.80
2023-03-03T00:01:25.859Z,29.30
2023-03-03T00:03:49.410Z,29.20
2023-03-03T00:04:49.341Z,32.50
2023-03-03T00:05:49.315Z,32.50
2023-03-03T00:06:49.308Z,33.40
2023-03-03T00:07:49.303Z,35.70
2023-03-03T00:08:49.379Z,36.00
2023-03-03T00:09:49.278Z,38.60
2023-03-03T00:10:49.275Z,36.80
2023-03-03T00:11:49.249Z,35.20
2023-03-03T00:12:49.235Z,34.50
2023-03-03T00:13:49.252Z,37.20
2023-03-03T00:14:49.243Z,37.50
2023-03-03T00:15:49.266Z,39.90
2023-03-03T00:16:49.212Z,37.90
2023-03-03T00:17:49.193Z,39.90
2023-03-03T00:18:49.195Z,40.60
2023-03-03T00:19:49.174Z,38.30
2023-03-03T00:20:49.151Z,39.40
2023-03-03T00:21:49.142Z,38.20
2023-03-03T00:22:49.129Z,39.50
2023-03-03T00:23:49.154Z,38.70
2023-03-03T00:24:49.105Z,38.90
2023-03-03T00:25:49.108Z,39.50
2023-03-03T00:26:49.109Z,38.90
2023-03-03T00:27:49.080Z,39.80
2023-03-03T00:28:49.073Z,40.50
2023-03-03T00:29:49.075Z,42.10
2023-03-03T00:30:49.110Z,41.50
2023-03-03T00:31:49.057Z,39.90
2023-03-03T00:32:49.028Z,41.00
2023-03-03T00:33:49.046Z,40.90
2023-03-03T00:34:49.020Z,42.90
2023-03-03T00:35:49.093Z,40.70
2023-03-03T00:36:48.992Z,42.30
2023-03-03T00:37:48.989Z,42.70
2023-03-03T00:38:48.998Z,44.30
2023-03-03T00:39:48.956Z,42.10
2023-03-03T00:40:48.956Z,44.30
2023-03-03T00:41:48.959Z,40.60
2023-03-03T00:42:48.926Z,42.50
2023-03-03T00:43:48.944Z,42.80
2023-03-03T00:44:48.909Z,41.60
2023-03-03T00:45:49.001Z,40.80
2023-03-03T00:46:48.886Z,41.80
2023-03-03T00:47:48.886Z,41.40
2023-03-03T00:48:48.889Z,42.80
2023-03-03T00:49:48.867Z,41.80
2023-03-03T00:50:48.858Z,40.70
2023-03-03T00:51:48.840Z,43.10
2023-03-03T00:52:48.827Z,42.40
2023-03-03T00:53:48.837Z,41.90
2023-03-03T00:54:48.813Z,43.70
2023-03-03T00:55:48.799Z,43.40
2023-03-03T00:56:48.787Z,41.50
2023-03-03T00:57:48.777Z,41.80
2023-03-03T00:58:48.763Z,41.90
2023-03-03T00:59:48.768Z,42.10
2023-03-03T01:00:48.753Z,42.90
2023-03-03T01:01:48.778Z,43.70
2023-03-03T01:02:48.792Z,43.10
2023-03-03T01:03:48.714Z,42.50
2023-03-03T01:04:48.711Z,42.60
2023-03-03T01:05:48.695Z,43.80
2023-03-03T01:06:48.679Z,45.40
2023-03-03T01:07:48.672Z,43.00
2023-03-03T01:08:48.664Z,44.10
2023-03-03T01:09:48.659Z,42.70
2023-03-03T01:10:48.634Z,42.30
2023-03-03T01:11:48.628Z,40.20
2023-03-03T01:12:48.612Z,42.50
2023-03-03T01:13:48.610Z,40.90
2023-03-03T01:14:48.626Z,42.10
2023-03-03T01:15:48.668Z,39.90
2023-03-03T01:16:48.576Z,41.10
2023-03-03T01:17:48.568Z,42.20
2023-03-03T01:18:48.568Z,39.80
2023-03-03T01:19:48.592Z,39.60
2023-03-03T01:20:48.531Z,40.00
2023-03-03T01:21:48.553Z,40.00
2023-03-03T01:22:48.518Z,38.80
2023-03-03T01:23:48.514Z,40.40
2023-03-03T01:24:48.515Z,40.50
2023-03-03T01:25:48.479Z,36.80
2023-03-03T01:26:48.471Z,34.30
2023-03-03T01:27:48.459Z,36.80
2023-03-03T01:28:48.446Z,37.20
2023-03-03T01:29:48.452Z,34.80
2023-03-03T01:30:48.447Z,34.80
2023-03-03T01:31:48.418Z,33.90
2023-03-03T01:32:48.404Z,33.00
2023-03-03T01:33:48.398Z,34.10
2023-03-03T01:34:48.395Z,33.40
2023-03-03T01:35:48.450Z,33.50
2023-03-03T01:36:48.375Z,33.60
2023-03-03T01:37:48.369Z,33.70
2023-03-03T01:38:48.342Z,32.20
2023-03-03T01:39:48.359Z,33.40
2023-03-03T01:40:48.326Z,33.70
2023-03-03T01:41:48.317Z,33.50
2023-03-03T01:42:48.301Z,34.00
2023-03-03T01:43:48.300Z,35.40
2023-03-03T01:44:48.314Z,33.50
2023-03-03T01:45:48.281Z,33.70
2023-03-03T01:46:48.513Z,33.10
2023-03-03T01:47:48.255Z,33.00
2023-03-03T01:48:48.242Z,33.30
2023-03-03T01:49:48.243Z,33.10
2023-03-03T01:50:48.231Z,34.70
2023-03-03T01:51:48.220Z,33.50
2023-03-03T01:52:48.230Z,32.50
2023-03-03T01:53:48.192Z,33.10
2023-03-03T01:54:48.191Z,32.50
2023-03-03T01:55:48.172Z,33.40
2023-03-03T01:56:48.157Z,32.80
2023-03-03T01:57:48.155Z,34.80
2023-03-03T01:58:48.134Z,32.90
2023-03-03T01:59:48.163Z,33.90
2023-03-03T02:00:48.114Z,31.90
2023-03-03T02:01:48.194Z,33.80
2023-03-03T02:02:48.183Z,34.50
2023-03-03T02:03:48.083Z,33.30
2023-03-03T02:04:48.088Z,32.90
2023-03-03T02:05:48.095Z,33.00
2023-03-03T02:06:48.065Z,34.20
2023-03-03T02:07:48.044Z,33.70
2023-03-03T02:08:48.049Z,34.10
2023-03-03T02:09:48.046Z,34.00
2023-03-03T02:10:48.005Z,33.50
2023-03-03T02:11:48.003Z,33.90
2023-03-03T02:12:48.007Z,32.90
2023-03-03T02:13:47.998Z,33.10
2023-03-03T02:14:47.986Z,35.50
2023-03-03T02:15:48.006Z,32.80
2023-03-03T02:16:47.955Z,32.10
2023-03-03T02:17:47.958Z,32.70
2023-03-03T02:18:47.928Z,33.60
2023-03-03T02:19:47.935Z,33.40
2023-03-03T02:20:47.938Z,33.80
2023-03-03T02:21:47.918Z,33.90
2023-03-03T02:22:47.898Z,34.20
2023-03-03T02:23:47.882Z,33.80
2023-03-03T02:24:47.887Z,35.30
2023-03-03T02:25:47.858Z,34.40
2023-03-03T02:26:47.860Z,35.30
2023-03-03T02:27:47.850Z,33.60
2023-03-03T02:28:47.828Z,35.20
2023-03-03T02:29:47.835Z,34.20
2023-03-03T02:30:47.824Z,32.20
2023-03-03T02:31:47.825Z,36.90
2023-03-03T02:32:47.794Z,35.00
2023-03-03T02:33:47.791Z,34.30
2023-03-03T02:34:47.772Z,33.20
2023-03-03T02:35:47.801Z,35.80
2023-03-03T02:36:47.748Z,34.30
2023-03-03T02:37:47.737Z,34.30
2023-03-03T02:38:47.722Z,34.50
2023-03-03T02:39:47.731Z,34.90
2023-03-03T02:40:47.715Z,34.90
2023-03-03T02:41:47.733Z,34.30
2023-03-03T02:42:47.680Z,33.90
2023-03-03T02:43:47.670Z,34.70
2023-03-03T02:44:47.668Z,33.70
2023-03-03T02:45:47.709Z,33.50
2023-03-03T02:46:47.645Z,34.70
2023-03-03T02:47:47.629Z,33.90
2023-03-03T02:48:47.619Z,34.50
2023-03-03T02:49:47.610Z,34.60
2023-03-03T02:50:47.603Z,32.80
2023-03-03T02:51:47.585Z,34.50
2023-03-03T02:52:47.580Z,33.60
2023-03-03T02:53:47.566Z,33.60
2023-03-03T02:54:47.567Z,34.20
2023-03-03T02:55:47.552Z,32.60
2023-03-03T02:56:47.536Z,34.50
2023-03-03T02:57:47.523Z,34.10
2023-03-03T02:58:47.510Z,33.90
2023-03-03T02:59:47.506Z,33.70
2023-03-03T03:00:47.536Z,35.00
2023-03-03T03:01:47.484Z,33.90
2023-03-03T03:02:47.468Z,34.50
2023-03-03T03:03:47.448Z,35.40
2023-03-03T03:04:47.444Z,34.60
2023-03-03T03:05:47.444Z,36.00
2023-03-03T03:06:47.435Z,34.00
2023-03-03T03:07:47.409Z,33.40
2023-03-03T03:08:47.401Z,34.00
2023-03-03T03:09:47.475Z,34.40
2023-03-03T03:10:47.401Z,35.10
2023-03-03T03:11:47.362Z,33.90
2023-03-03T03:12:47.352Z,34.00
2023-03-03T03:13:47.344Z,34.50
2023-03-03T03:14:47.325Z,34.00
2023-03-03T03:15:47.318Z,35.10
2023-03-03T03:16:47.350Z,35.00
2023-03-03T03:17:47.307Z,35.60
2023-03-03T03:18:47.297Z,34.40
2023-03-03T03:19:47.285Z,34.00
2023-03-03T03:20:48.555Z,34.30
2023-03-03T03:21:47.271Z,35.10
2023-03-03T03:22:47.249Z,35.30
2023-03-03T03:23:47.236Z,35.30
2023-03-03T03:24:47.232Z,34.90
2023-03-03T03:25:47.216Z,35.00
2023-03-03T03:26:47.215Z,33.70
2023-03-03T03:27:47.187Z,34.50
2023-03-03T03:28:47.290Z,35.00
2023-03-03T03:29:47.167Z,34.10
2023-03-03T03:30:47.192Z,34.60
2023-03-03T03:31:47.160Z,34.10
2023-03-03T03:32:47.136Z,33.80
2023-03-03T03:33:47.128Z,34.30
2023-03-03T03:34:47.129Z,33.20
2023-03-03T03:35:47.181Z,35.20
2023-03-03T03:36:47.106Z,33.60
2023-03-03T03:37:47.089Z,35.30
2023-03-03T03:38:47.074Z,33.40
2023-03-03T03:39:47.058Z,33.80
2023-03-03T03:40:47.046Z,33.70
2023-03-03T03:41:47.071Z,34.80
2023-03-03T03:42:47.029Z,34.10
2023-03-03T03:43:47.015Z,32.90
2023-03-03T03:44:47.044Z,33.60
2023-03-03T03:45:47.013Z,35.90
2023-03-03T03:46:47.009Z,34.30
2023-03-03T03:47:47.008Z,33.60
2023-03-03T03:48:46.962Z,34.20
2023-03-03T03:49:46.958Z,34.80
2023-03-03T03:50:46.941Z,34.40
2023-03-03T03:51:46.938Z,34.40
2023-03-03T03:52:46.934Z,34.50
2023-03-03T03:53:46.911Z,33.40
2023-03-03T03:54:46.906Z,33.70
2023-03-03T03:55:46.888Z,34.80
2023-03-03T03:56:46.901Z,33.40
2023-03-03T03:57:46.870Z,33.50
2023-03-03T03:58:46.864Z,33.60
2023-03-03T03:59:46.852Z,33.60
2023-03-03T04:00:46.852Z,34.90
2023-03-03T04:01:46.844Z,33.80
2023-03-03T04:02:46.901Z,32.60
2023-03-03T04:03:46.816Z,34.50
2023-03-03T04:04:46.811Z,34.70
2023-03-03T04:05:46.793Z,32.70
2023-03-03T04:06:46.808Z,35.30
2023-03-03T04:07:46.764Z,35.50
2023-03-03T04:08:46.762Z,35.20
2023-03-03T04:09:46.750Z,33.10
2023-03-03T04:10:46.742Z,33.90
2023-03-03T04:11:46.738Z,33.90
2023-03-03T04:12:46.719Z,33.10
2023-03-03T04:13:46.706Z,34.80
2023-03-03T04:14:46.701Z,34.80
2023-03-03T04:15:46.740Z,32.50
2023-03-03T04:16:46.688Z,31.00
2023-03-03T04:17:46.669Z,33.70
2023-03-03T04:18:46.862Z,33.60
2023-03-03T04:19:46.660Z,33.00
2023-03-03T04:20:46.634Z,32.30
2023-03-03T04:21:46.633Z,33.50
2023-03-03T04:22:46.624Z,33.80
2023-03-03T04:23:46.630Z,34.50
2023-03-03T04:24:46.589Z,32.50
2023-03-03T04:25:46.594Z,32.90
2023-03-03T04:26:46.594Z,32.70
2023-03-03T04:27:46.563Z,33.90
2023-03-03T04:28:46.563Z,33.50
2023-03-03T04:29:46.557Z,33.30
2023-03-03T04:30:46.612Z,32.70
2023-03-03T04:31:46.538Z,33.00
2023-03-03T04:32:46.532Z,32.20
2023-03-03T04:33:46.501Z,32.20
2023-03-03T04:34:52.962Z,31.50
2023-03-03T04:35:47.554Z,32.20
2023-03-03T04:36:46.490Z,32.30
2023-03-03T04:37:46.460Z,32.10
2023-03-03T04:38:46.452Z,31.20
2023-03-03T04:39:46.442Z,31.30
2023-03-03T04:40:46.429Z,32.70
2023-03-03T04:41:46.430Z,31.00
2023-03-03T04:42:46.404Z,31.60
2023-03-03T04:43:46.404Z,32.70
2023-03-03T04:44:46.387Z,50.30
2023-03-03T04:45:46.372Z,36.80
2023-03-03T04:46:46.380Z,39.30
2023-03-03T04:47:46.353Z,41.30
2023-03-03T04:48:46.350Z,42.00
2023-03-03T04:49:46.348Z,33.20
2023-03-03T04:50:46.329Z,36.10
2023-03-03T04:51:46.327Z,36.80
2023-03-03T04:52:46.304Z,38.70
2023-03-03T04:53:46.290Z,35.00
2023-03-03T04:54:46.275Z,40.10
2023-03-03T04:55:46.280Z,44.10
2023-03-03T04:56:46.279Z,57.90
2023-03-03T04:57:46.282Z,52.80
2023-03-03T04:58:46.249Z,41.50
2023-03-03T04:59:46.234Z,35.30
2023-03-03T05:00:46.217Z,34.20
2023-03-03T05:01:46.315Z,32.50
2023-03-03T05:02:46.197Z,32.60
2023-03-03T05:03:46.187Z,31.60
2023-03-03T05:04:46.245Z,35.10
2023-03-03T05:05:46.165Z,31.60
2023-03-03T05:06:46.181Z,31.70
2023-03-03T05:07:46.140Z,32.50
2023-03-03T05:08:46.126Z,31.80
2023-03-03T05:09:46.139Z,31.20
2023-03-03T05:10:46.139Z,31.60
2023-03-03T05:11:46.119Z,31.60
2023-03-03T05:12:46.086Z,31.00
2023-03-03T05:13:46.079Z,30.80
2023-03-03T05:14:46.067Z,29.80
2023-03-03T05:15:46.125Z,30.10
2023-03-03T05:16:46.093Z,29.70
2023-03-03T05:17:46.060Z,30.60
2023-03-03T05:18:46.942Z,29.50
2023-03-03T05:19:46.012Z,28.40
2023-03-03T05:20:46.010Z,29.40
2023-03-03T05:21:46.070Z,30.40
2023-03-03T05:22:45.993Z,29.50
2023-03-03T05:23:45.974Z,29.50
2023-03-03T05:24:45.961Z,28.90
2023-03-03T05:25:45.949Z,28.20
2023-03-03T05:26:45.977Z,27.80
2023-03-03T05:27:45.930Z,27.90
2023-03-03T05:28:45.923Z,28.80
2023-03-03T05:29:45.904Z,27.60
2023-03-03T05:30:45.896Z,28.90
2023-03-03T05:31:45.984Z,26.30
2023-03-03T05:32:45.873Z,28.30
2023-03-03T05:33:45.864Z,28.50
2023-03-03T05:34:45.850Z,27.30
2023-03-03T05:35:45.905Z,27.70
2023-03-03T05:36:45.850Z,26.40
2023-03-03T05:37:45.823Z,27.80
2023-03-03T05:38:45.820Z,26.80
2023-03-03T05:39:45.817Z,27.70
2023-03-03T05:40:45.794Z,26.90
2023-03-03T05:41:45.788Z,26.90
2023-03-03T05:42:45.869Z,27.10
2023-03-03T05:43:45.783Z,26.80
2023-03-03T05:44:45.746Z,24.90
2023-03-03T05:45:45.741Z,26.40
2023-03-03T05:46:45.798Z,27.30
2023-03-03T05:47:45.735Z,27.90
2023-03-03T05:48:45.710Z,26.70
2023-03-03T05:49:45.703Z,28.70
2023-03-03T05:50:45.690Z,27.40
2023-03-03T05:51:45.689Z,27.90
2023-03-03T05:52:45.686Z,27.10
2023-03-03T05:53:45.661Z,25.90
2023-03-03T05:54:45.646Z,26.30
2023-03-03T05:55:45.647Z,26.50
2023-03-03T05:56:45.632Z,25.70
2023-03-03T05:57:45.641Z,27.40
2023-03-03T05:58:45.617Z,27.90
2023-03-03T05:59:45.604Z,26.20
2023-03-03T06:00:45.682Z,25.50
2023-03-03T06:01:52.546Z,24.50
2023-03-03T06:02:45.621Z,26.00
2023-03-03T06:03:45.557Z,24.90
2023-03-03T06:04:45.545Z,24.20
2023-03-03T06:05:45.581Z,23.70
2023-03-03T06:06:45.576Z,25.00
2023-03-03T06:07:50.532Z,24.10
2023-03-03T06:08:45.543Z,24.60
2023-03-03T06:09:45.504Z,25.50
2023-03-03T06:10:45.495Z,24.70
2023-03-03T06:11:45.478Z,25.40
2023-03-03T06:12:45.541Z,24.80
2023-03-03T06:13:45.471Z,21.70
2023-03-03T06:14:45.459Z,23.60
2023-03-03T06:15:45.478Z,22.60
2023-03-03T06:16:45.465Z,22.80
2023-03-03T06:17:45.435Z,21.80
2023-03-03T06:18:45.403Z,23.40
2023-03-03T06:19:48.018Z,22.90
2023-03-03T06:20:45.379Z,23.10
2023-03-03T06:21:45.386Z,21.30
2023-03-03T06:22:45.374Z,21.50
2023-03-03T06:23:45.360Z,21.50
2023-03-03T06:24:45.339Z,21.00
2023-03-03T06:25:45.331Z,22.60
2023-03-03T06:26:45.330Z,21.10
2023-03-03T06:27:45.330Z,21.20
2023-03-03T06:28:45.365Z,20.30
2023-03-03T06:29:45.295Z,21.70
2023-03-03T06:30:45.276Z,21.20
2023-03-03T06:31:45.294Z,21.70
2023-03-03T06:32:45.346Z,20.70
2023-03-03T06:33:45.257Z,21.50
2023-03-03T06:34:45.356Z,20.30
2023-03-03T06:35:45.257Z,20.20
2023-03-03T06:36:45.223Z,19.80
2023-03-03T06:37:45.217Z,20.60
2023-03-03T06:38:45.199Z,18.90
2023-03-03T06:39:45.191Z,19.00
2023-03-03T06:40:45.174Z,19.50
2023-03-03T06:41:45.165Z,19.50
2023-03-03T06:42:45.190Z,19.50
2023-03-03T06:43:45.171Z,19.50
2023-03-03T06:44:45.151Z,20.20
2023-03-03T06:45:45.131Z,19.70
2023-03-03T06:46:45.112Z,19.40
2023-03-03T06:47:45.115Z,18.30
2023-03-03T06:48:45.090Z,19.20
2023-03-03T06:49:45.108Z,19.00
2023-03-03T06:50:45.069Z,19.10
2023-03-03T06:51:45.057Z,19.50
2023-03-03T06:52:45.066Z,18.20
2023-03-03T06:53:45.041Z,18.20
2023-03-03T06:54:45.021Z,17.60
2023-03-03T06:55:45.168Z,18.60
2023-03-03T06:56:45.025Z,18.60
2023-03-03T06:57:45.009Z,28.20
2023-03-03T06:58:44.986Z,24.50
2023-03-03T06:59:44.973Z,20.30
2023-03-03T07:00:44.994Z,19.40
2023-03-03T07:01:44.957Z,19.70
2023-03-03T07:02:44.954Z,19.20
2023-03-03T07:03:44.940Z,19.90
2023-03-03T07:04:44.923Z,18.30
2023-03-03T07:05:44.918Z,18.80
2023-03-03T07:06:44.912Z,19.50
2023-03-03T07:07:44.947Z,17.60
2023-03-03T07:08:44.884Z,18.20
2023-03-03T07:09:44.870Z,18.00
2023-03-03T07:10:44.867Z,18.60
2023-03-03T07:11:46.576Z,17.30
2023-03-03T07:12:44.851Z,16.80
2023-03-03T07:13:44.863Z,17.80
2023-03-03T07:14:45.543Z,16.80
2023-03-03T07:15:44.821Z,17.00
2023-03-03T07:16:44.818Z,16.90
2023-03-03T07:17:44.806Z,18.00
2023-03-03T07:18:44.807Z,18.10
2023-03-03T07:19:44.771Z,18.30
2023-03-03T07:20:44.770Z,16.80
2023-03-03T07:22:05.799Z,17.10
2023-03-03T07:22:44.758Z,17.00
2023-03-03T07:23:44.746Z,17.20
2023-03-03T07:24:44.744Z,16.80
2023-03-03T07:25:44.726Z,17.10
2023-03-03T07:26:44.710Z,17.00
2023-03-03T07:27:44.712Z,16.80
2023-03-03T07:28:44.714Z,16.40
2023-03-03T07:29:44.683Z,16.10
2023-03-03T07:30:44.687Z,16.00
2023-03-03T07:31:45.695Z,16.10
2023-03-03T07:32:44.666Z,15.80
2023-03-03T07:33:44.636Z,15.50
2023-03-03T07:34:44.628Z,15.90
2023-03-03T07:35:44.665Z,16.60
2023-03-03T07:36:44.624Z,17.20
2023-03-03T07:37:44.609Z,16.60
2023-03-03T07:38:44.588Z,16.10
2023-03-03T07:39:44.574Z,16.80
2023-03-03T07:40:51.553Z,15.80
2023-03-03T07:41:44.560Z,16.70
2023-03-03T07:42:44.567Z,15.80
2023-03-03T07:43:44.566Z,16.30
2023-03-03T07:44:44.560Z,16.00
2023-03-03T07:45:44.541Z,15.00
2023-03-03T07:46:44.507Z,15.00
2023-03-03T07:47:44.519Z,15.30
2023-03-03T07:48:44.491Z,15.60
2023-03-03T07:49:44.468Z,15.10
2023-03-03T07:50:44.475Z,15.00
2023-03-03T07:51:44.456Z,15.20
2023-03-03T07:52:44.448Z,15.20
2023-03-03T07:53:44.454Z,15.60
2023-03-03T07:54:44.420Z,16.30
2023-03-03T07:55:44.416Z,16.10
2023-03-03T07:56:44.395Z,15.90
2023-03-03T07:57:44.386Z,14.30
2023-03-03T07:58:44.405Z,14.80
2023-03-03T07:59:44.360Z,15.80
2023-03-03T08:00:44.380Z,14.20
2023-03-03T08:01:44.452Z,14.50
2023-03-03T08:02:44.335Z,14.20
2023-03-03T08:03:44.336Z,15.10
2023-03-03T08:04:44.412Z,15.40
2023-03-03T08:05:44.297Z,15.00
2023-03-03T08:06:44.292Z,14.10
2023-03-03T08:07:44.278Z,14.90
2023-03-03T08:08:44.439Z,14.50
2023-03-03T08:09:44.260Z,15.40
2023-03-03T08:10:44.301Z,15.40
2023-03-03T08:11:44.260Z,14.80
2023-03-03T08:12:44.226Z,15.80
2023-03-03T08:13:44.218Z,15.50
2023-03-03T08:14:44.208Z,14.40
2023-03-03T08:15:44.296Z,15.30
2023-03-03T08:16:44.176Z,14.40
2023-03-03T08:17:44.163Z,15.40
2023-03-03T08:18:44.167Z,15.20
2023-03-03T08:19:44.135Z,15.70
2023-03-03T08:20:44.128Z,14.40
2023-03-03T08:21:44.118Z,14.60
2023-03-03T08:22:44.106Z,15.50
2023-03-03T08:23:44.097Z,15.00
2023-03-03T08:24:44.081Z,15.30
2023-03-03T08:25:44.156Z,15.00
2023-03-03T08:26:44.072Z,14.70
2023-03-03T08:27:44.072Z,14.50
2023-03-03T08:28:44.077Z,14.80
2023-03-03T08:29:44.026Z,14.90
2023-03-03T08:30:44.111Z,15.90
2023-03-03T08:31:44.066Z,14.70
2023-03-03T08:32:44.077Z,14.20
2023-03-03T08:33:44.016Z,14.20
2023-03-03T08:34:43.969Z,14.70
2023-03-03T08:35:43.999Z,14.90
2023-03-03T08:36:43.982Z,14.90
2023-03-03T08:37:43.952Z,14.50
2023-03-03T08:38:43.968Z,15.10
2023-03-03T08:39:43.915Z,14.10
2023-03-03T08:40:44.260Z,14.10
2023-03-03T08:41:43.953Z,15.20
2023-03-03T08:42:43.883Z,13.90
2023-03-03T08:43:43.893Z,14.40
2023-03-03T08:44:43.862Z,14.50
2023-03-03T08:45:43.883Z,14.50
2023-03-03T08:46:44.015Z,14.20
2023-03-03T08:47:43.833Z,15.30
2023-03-03T08:48:43.832Z,15.90
2023-03-03T08:49:43.831Z,15.20
2023-03-03T08:50:43.805Z,15.20
2023-03-03T08:51:43.786Z,14.30
2023-03-03T08:52:43.805Z,13.70
2023-03-03T08:53:43.797Z,15.20
2023-03-03T08:54:43.763Z,14.90
2023-03-03T08:55:43.749Z,15.70
2023-03-03T08:56:43.727Z,14.60
2023-03-03T08:57:43.724Z,14.30
2023-03-03T08:58:59.624Z,13.60
2023-03-03T08:59:44.705Z,14.20
2023-03-03T09:00:43.698Z,13.90
2023-03-03T09:01:43.713Z,13.70
2023-03-03T09:02:43.714Z,14.30
2023-03-03T09:03:43.662Z,13.60
2023-03-03T09:04:43.730Z,13.40
2023-03-03T09:05:43.750Z,13.70
2023-03-03T09:06:43.655Z,14.00
2023-03-03T09:07:43.627Z,13.00
2023-03-03T09:08:43.600Z,12.50
2023-03-03T09:09:43.620Z,14.10
2023-03-03T09:10:43.582Z,13.10
2023-03-03T09:11:43.615Z,14.40
2023-03-03T09:12:43.564Z,12.80
2023-03-03T09:13:43.563Z,12.90
2023-03-03T09:14:43.554Z,13.60
2023-03-03T09:15:43.630Z,12.60
2023-03-03T09:16:43.530Z,13.20
2023-03-03T09:17:43.524Z,13.90
2023-03-03T09:18:43.521Z,13.30
2023-03-03T09:19:43.517Z,14.40
2023-03-03T09:20:43.480Z,14.10
2023-03-03T09:21:44.173Z,12.80
2023-03-03T09:22:58.600Z,13.10
2023-03-03T09:23:43.451Z,11.70
2023-03-03T09:24:43.473Z,12.30
2023-03-03T09:25:43.487Z,12.20
2023-03-03T09:28:16.320Z,11.60
2023-03-03T09:29:16.423Z,13.10
2023-03-03T09:30:16.324Z,12.80
2023-03-03T09:31:16.336Z,12.60
2023-03-03T09:32:16.332Z,13.20
2023-03-03T09:33:27.510Z,13.00
2023-03-03T09:34:17.291Z,12.50
2023-03-03T09:35:16.276Z,12.70
2023-03-03T09:36:16.253Z,12.60
2023-03-03T09:37:16.935Z,12.70
2023-03-03T09:38:16.392Z,13.60
2023-03-03T09:39:16.298Z,13.70
2023-03-03T09:40:16.237Z,12.80
2023-03-03T09:41:16.225Z,12.60
2023-03-03T09:42:16.196Z,13.40
2023-03-03T09:43:18.300Z,13.60
2023-03-03T09:44:16.202Z,12.50
2023-03-03T09:45:16.170Z,12.30
2023-03-03T09:46:16.221Z,12.00
2023-03-03T09:47:16.177Z,12.70
2023-03-03T09:48:16.158Z,12.60
2023-03-03T09:49:16.150Z,12.20
2023-03-03T09:50:16.107Z,11.80
2023-03-03T09:51:16.123Z,11.90
2023-03-03T09:52:16.941Z,11.70
2023-03-03T09:53:16.128Z,11.90
2023-03-03T09:54:16.085Z,11.80
2023-03-03T09:55:16.111Z,13.30
2023-03-03T09:56:16.051Z,12.70
2023-03-03T09:57:16.038Z,11.20
2023-03-03T09:58:16.033Z,11.80
2023-03-03T09:59:16.050Z,11.50
2023-03-03T10:00:16.030Z,12.00
2023-03-03T10:01:15.998Z,12.30
2023-03-03T10:02:16.015Z,11.90
2023-03-03T10:03:16.018Z,11.10
2023-03-03T10:04:15.990Z,11.20
2023-03-03T10:05:16.000Z,11.50
2023-03-03T10:06:16.005Z,11.00
2023-03-03T10:07:16.022Z,11.30
2023-03-03T10:08:15.988Z,11.70
2023-03-03T10:09:15.946Z,10.80
2023-03-03T10:10:15.970Z,11.10
2023-03-03T10:11:15.999Z,11.10
2023-03-03T10:12:17.800Z,10.90
2023-03-03T10:13:15.876Z,11.40
2023-03-03T10:14:15.956Z,11.10
2023-03-03T10:15:15.889Z,11.10
2023-03-03T10:16:15.870Z,13.40
2023-03-03T10:17:15.911Z,11.40
2023-03-03T10:18:15.914Z,11.90
2023-03-03T10:19:15.944Z,13.90
2023-03-03T10:20:15.869Z,12.30
2023-03-03T10:21:15.787Z,10.20
2023-03-03T10:22:15.820Z,12.70
2023-03-03T10:23:15.763Z,10.30
2023-03-03T10:24:15.777Z,11.60
2023-03-03T10:25:15.819Z,11.10
2023-03-03T10:26:15.732Z,12.00
2023-03-03T10:27:15.733Z,11.80
2023-03-03T10:28:15.702Z,11.80
2023-03-03T10:29:22.125Z,11.10
2023-03-03T10:30:17.565Z,10.90
2023-03-03T10:31:18.194Z,11.00
2023-03-03T10:32:16.532Z,10.00
2023-03-03T10:33:15.899Z,13.00
2023-03-03T10:34:15.707Z,11.80
2023-03-03T10:35:15.961Z,11.20
2023-03-03T10:36:15.712Z,11.00
2023-03-03T10:37:15.608Z,12.00
2023-03-03T10:38:15.606Z,11.60
2023-03-03T10:39:15.629Z,11.30
2023-03-03T10:40:15.683Z,12.90
2023-03-03T10:41:15.588Z,11.90
2023-03-03T10:42:15.651Z,10.90
2023-03-03T10:43:29.698Z,12.50
2023-03-03T10:44:16.528Z,11.90
2023-03-03T10:45:15.533Z,12.40
2023-03-03T10:46:15.647Z,10.90
2023-03-03T10:47:15.521Z,10.70
2023-03-03T10:48:15.484Z,11.60
2023-03-03T10:49:15.485Z,11.20
2023-03-03T10:50:15.486Z,9.90
2023-03-03T10:51:15.461Z,10.30
2023-03-03T10:52:15.461Z,10.00
2023-03-03T10:53:15.468Z,10.20
2023-03-03T10:54:15.423Z,10.60
2023-03-03T10:55:15.452Z,12.40
2023-03-03T10:56:15.428Z,9.70
2023-03-03T10:57:15.419Z,9.30
2023-03-03T10:58:15.409Z,10.10
2023-03-03T10:59:15.384Z,9.20
2023-03-03T11:00:15.437Z,9.40
2023-03-03T11:01:15.404Z,10.70
2023-03-03T11:02:15.342Z,10.30
2023-03-03T11:03:15.330Z,10.40
2023-03-03T11:04:15.373Z,10.50
2023-03-03T11:05:15.328Z,10.10
2023-03-03T11:06:15.304Z,9.40
2023-03-03T11:07:15.287Z,10.00
2023-03-03T11:08:15.338Z,10.00
2023-03-03T11:09:15.276Z,11.10
2023-03-03T11:10:15.316Z,10.20
2023-03-03T11:11:15.241Z,11.20
2023-03-03T11:12:15.244Z,11.00
2023-03-03T11:13:15.245Z,10.70
2023-03-03T11:14:15.206Z,9.70
2023-03-03T11:15:15.223Z,10.80
2023-03-03T11:16:15.254Z,9.90
2023-03-03T11:17:15.183Z,9.60
2023-03-03T11:18:15.177Z,9.20
2023-03-03T11:19:15.158Z,9.20
2023-03-03T11:20:15.148Z,9.10
2023-03-03T11:21:15.181Z,9.80
2023-03-03T11:22:15.125Z,9.30
2023-03-03T11:23:15.121Z,9.20
2023-03-03T11:24:15.109Z,9.60
2023-03-03T11:25:15.106Z,11.30
2023-03-03T11:26:15.127Z,11.40
2023-03-03T11:27:15.079Z,11.10
2023-03-03T11:28:15.064Z,11.20
2023-03-03T11:29:15.081Z,10.30
2023-03-03T11:30:15.056Z,10.90
2023-03-03T11:31:15.117Z,10.50
2023-03-03T11:32:15.103Z,9.10
2023-03-03T11:33:15.075Z,8.90
2023-03-03T11:34:15.004Z,9.40
2023-03-03T11:35:14.999Z,10.00
2023-03-03T11:36:14.990Z,9.20
2023-03-03T11:37:14.976Z,8.90
2023-03-03T11:38:14.990Z,8.90
2023-03-03T11:39:15.036Z,8.70
2023-03-03T11:40:15.373Z,8.90
2023-03-03T11:41:14.948Z,8.60
2023-03-03T11:42:14.948Z,9.20
2023-03-03T11:43:26.283Z,8.60
2023-03-03T11:44:15.920Z,9.00
2023-03-03T11:45:14.893Z,8.70
2023-03-03T11:46:14.947Z,9.30
2023-03-03T11:47:14.869Z,9.30
2023-03-03T11:48:14.866Z,9.10
2023-03-03T11:49:14.844Z,9.40
2023-03-03T11:50:14.832Z,9.20
2023-03-03T11:51:14.838Z,9.20
2023-03-03T11:52:14.825Z,8.30
2023-03-03T11:53:14.811Z,8.50
2023-03-03T11:54:14.805Z,8.80
2023-03-03T11:55:14.776Z,8.90
2023-03-03T11:56:14.781Z,9.10
2023-03-03T11:57:14.761Z,8.30
2023-03-03T11:58:14.760Z,8.90
2023-03-03T11:59:14.738Z,8.20
2023-03-03T12:00:14.722Z,9.00
2023-03-03T12:01:14.733Z,8.80
2023-03-03T12:02:14.777Z,8.30
2023-03-03T12:03:14.683Z,8.40
2023-03-03T12:04:14.674Z,7.80
2023-03-03T12:05:14.706Z,8.70
2023-03-03T12:06:14.775Z,8.40
2023-03-03T12:07:18.926Z,9.00
2023-03-03T12:08:14.681Z,8.90
2023-03-03T12:09:14.785Z,9.30
2023-03-03T12:10:14.613Z,8.50
2023-03-03T12:11:14.648Z,8.90
2023-03-03T12:12:14.592Z,8.80
2023-03-03T12:13:14.673Z,8.70
2023-03-03T12:14:14.591Z,8.50
2023-03-03T12:15:14.558Z,9.10
2023-03-03T12:16:14.591Z,8.90
2023-03-03T12:17:14.538Z,8.50
2023-03-03T12:18:14.570Z,9.20
2023-03-03T12:19:14.549Z,8.60
2023-03-03T12:20:14.517Z,8.40
2023-03-03T12:21:14.526Z,9.30
2023-03-03T12:22:14.511Z,9.20
2023-03-03T12:23:14.516Z,8.80
2023-03-03T12:24:14.492Z,9.00
2023-03-03T12:25:14.528Z,9.60
2023-03-03T12:26:14.499Z,8.80
2023-03-03T12:27:14.520Z,9.10
2023-03-03T12:28:14.474Z,8.80
2023-03-03T12:29:14.437Z,8.30
2023-03-03T12:30:14.424Z,8.90
2023-03-03T12:31:14.467Z,8.80
2023-03-03T12:32:14.468Z,9.00
2023-03-03T12:33:14.401Z,9.40
2023-03-03T12:34:14.408Z,8.80
2023-03-03T12:35:14.387Z,8.40
2023-03-03T12:36:14.441Z,8.80
2023-03-03T12:37:14.387Z,8.60
2023-03-03T12:38:14.360Z,9.20
2023-03-03T12:39:17.704Z,8.50
2023-03-03T12:40:15.424Z,8.00
2023-03-03T12:41:14.325Z,9.70
2023-03-03T12:42:14.408Z,12.40
2023-03-03T12:43:14.294Z,10.30
2023-03-03T12:44:14.313Z,10.70
2023-03-03T12:45:14.268Z,14.90
2023-03-03T12:46:14.323Z,12.50
2023-03-03T12:47:14.305Z,11.70
2023-03-03T12:48:14.248Z,11.70
2023-03-03T12:49:14.254Z,11.80
2023-03-03T12:50:14.252Z,17.90
2023-03-03T12:51:14.246Z,10.70
2023-03-03T12:52:14.256Z,9.90
2023-03-03T12:53:14.208Z,9.00
2023-03-03T12:54:14.196Z,8.60
2023-03-03T12:55:14.164Z,9.40
2023-03-03T12:56:14.249Z,9.00
2023-03-03T12:57:15.519Z,9.60
2023-03-03T12:58:14.160Z,9.50